createdAt,value
2022-10-18T00:02:07.888Z,99989.16
2022-10-18T00:04:34.849Z,99990.66
2022-10-18T00:07:01.386Z,99990.66
2022-10-18T00:09:29.433Z,100000.50
2022-10-18T00:11:56.516Z,100003.13
2022-10-18T00:14:23.110Z,99996.34
2022-10-18T00:16:49.669Z,100001.38
2022-10-18T00:19:16.186Z,100000.25
2022-10-18T00:24:14.710Z,100007.56
2022-10-18T00:26:42.642Z,100009.03
2022-10-18T00:29:14.234Z,100010.50
2022-10-18T00:31:41.220Z,100007.31
2022-10-18T00:34:11.311Z,100012.69
2022-10-18T00:36:37.893Z,100017.34
2022-10-18T00:39:07.142Z,100019.31
2022-10-18T00:41:36.270Z,100016.88
2022-10-18T00:44:06.004Z,100015.28
2022-10-18T00:46:34.597Z,100010.50
2022-10-18T00:49:04.290Z,100025.81
2022-10-18T00:51:36.147Z,100019.06
2022-10-18T00:54:02.963Z,100024.53
2022-10-18T00:56:29.967Z,100020.53
2022-10-18T00:58:57.315Z,100031.84
2022-10-18T01:01:28.282Z,100028.75
2022-10-18T01:03:56.542Z,100025.22
2022-10-18T01:06:23.667Z,100029.91
2022-10-18T01:09:01.144Z,100027.47
2022-10-18T01:11:47.722Z,100011.38
2022-10-18T01:14:24.635Z,100008.97
2022-10-18T01:16:59.033Z,100015.59
2022-10-18T01:19:53.143Z,100016.72
2022-10-18T01:22:24.219Z,100012.38
2022-10-18T01:25:06.730Z,100001.75
2022-10-18T01:27:45.185Z,100011.09
2022-10-18T01:30:43.262Z,99998.53
2022-10-18T01:33:22.614Z,99989.50
2022-10-18T01:35:53.661Z,99993.50
2022-10-18T01:38:22.197Z,99991.91
2022-10-18T01:40:51.064Z,99987.22
2022-10-18T01:43:19.799Z,99984.81
2022-10-18T01:45:48.643Z,99984.38
2022-10-18T01:48:16.677Z,99981.16
2022-10-18T01:50:43.204Z,99983.44
2022-10-18T01:53:30.975Z,99981.81
2022-10-18T01:56:24.036Z,99981.81
2022-10-18T01:59:02.623Z,99972.31
2022-10-18T02:01:38.756Z,99956.22
2022-10-18T02:04:10.692Z,99963.66
2022-10-18T02:06:44.716Z,99957.38
2022-10-18T02:09:18.037Z,99963.31
2022-10-18T02:11:48.037Z,99966.41
2022-10-18T02:14:18.627Z,99969.13
2022-10-18T02:16:50.943Z,99974.97
2022-10-18T02:21:58.843Z,99962.84
2022-10-18T02:24:31.708Z,99961.72
2022-10-18T02:26:58.308Z,99948.00
2022-10-18T02:29:24.942Z,99948.00
2022-10-18T02:31:56.779Z,99939.41
2022-10-18T02:34:27.611Z,99926.97
2022-10-18T02:36:57.623Z,99929.38
2022-10-18T02:39:29.651Z,99926.31
2022-10-18T02:41:57.495Z,99925.16
2022-10-18T02:44:24.303Z,99923.22
2022-10-18T02:46:51.189Z,99927.56
2022-10-18T02:49:19.152Z,99936.94
2022-10-18T02:51:45.633Z,99938.06
2022-10-18T02:54:12.281Z,99945.03
2022-10-18T02:56:38.778Z,99945.03
2022-10-18T02:59:05.396Z,99946.16
2022-10-18T03:01:32.047Z,99953.59
2022-10-18T03:03:58.595Z,99957.47
2022-10-18T03:06:26.667Z,99966.16
2022-10-18T03:08:53.243Z,99957.47
2022-10-18T03:11:20.321Z,99957.13
2022-10-18T03:13:46.828Z,99964.47
2022-10-18T03:16:13.356Z,99975.44
2022-10-18T03:18:39.872Z,99973.81
2022-10-18T03:21:07.108Z,99975.75
2022-10-18T03:23:35.263Z,99978.50
2022-10-18T03:26:02.021Z,99977.69
2022-10-18T03:28:28.583Z,99985.13
2022-10-18T03:31:00.023Z,99987.06
2022-10-18T03:33:26.565Z,99989.31
2022-10-18T03:35:53.119Z,99994.47
2022-10-18T03:38:19.617Z,99989.66
2022-10-18T03:40:47.486Z,99992.75
2022-10-18T03:43:14.178Z,99993.44
2022-10-18T03:45:40.701Z,99983.94
2022-10-18T03:48:07.277Z,99980.38
2022-10-18T03:50:33.795Z,99976.38
2022-10-18T03:53:00.410Z,99979.78
2022-10-18T03:55:27.136Z,99982.88
2022-10-18T03:57:54.987Z,99985.94
2022-10-18T04:00:21.588Z,99984.34
2022-10-18T04:02:51.954Z,99988.22
2022-10-18T04:05:21.677Z,99992.09
2022-10-18T04:07:48.176Z,99994.06
2022-10-18T04:10:14.826Z,99992.31
2022-10-18T04:12:41.420Z,99991.81
2022-10-18T04:15:10.608Z,99989.09
2022-10-18T04:17:37.226Z,99983.13
2022-10-18T04:20:04.359Z,99987.84
2022-10-18T04:22:30.952Z,99986.66
2022-10-18T04:24:57.462Z,99985.09
2022-10-18T04:27:24.273Z,99990.91
2022-10-18T04:29:50.809Z,99988.59
2022-10-18T04:32:18.757Z,99993.75
2022-10-18T04:34:45.306Z,99988.59
2022-10-18T04:37:11.924Z,99987.03
2022-10-18T04:39:38.452Z,99992.50
2022-10-18T04:42:05.042Z,99995.59
2022-10-18T04:44:31.567Z,99986.09
2022-10-18T04:46:58.062Z,99980.13
2022-10-18T04:49:25.894Z,99980.47
2022-10-18T04:51:52.450Z,99976.59
2022-10-18T04:54:18.948Z,99968.53
2022-10-18T04:56:45.612Z,99974.03
2022-10-18T04:59:12.114Z,99969.69
2022-10-18T05:01:38.831Z,99979.69
2022-10-18T05:04:05.510Z,99981.63
2022-10-18T05:06:33.503Z,99983.91
2022-10-18T05:09:00.080Z,99979.91
2022-10-18T05:11:26.587Z,99990.84
2022-10-18T05:13:53.159Z,99991.66
2022-10-18T05:16:19.912Z,99987.31
2022-10-18T05:18:46.605Z,99980.22
2022-10-18T05:21:13.338Z,99978.63
2022-10-18T05:23:41.163Z,99973.13
2022-10-18T05:26:08.930Z,99972.66
2022-10-18T05:28:40.526Z,99962.88
2022-10-18T05:31:09.309Z,99965.59
2022-10-18T05:33:36.298Z,99956.91
2022-10-18T05:36:03.150Z,99957.72
2022-10-18T05:38:29.769Z,99958.84
2022-10-18T05:40:58.026Z,99956.78
2022-10-18T05:43:27.543Z,99957.56
2022-10-18T05:45:54.109Z,99964.50
2022-10-18T05:48:20.643Z,99958.22
2022-10-18T05:50:47.199Z,99959.72
2022-10-18T05:53:35.302Z,99956.97
2022-10-18T05:56:02.410Z,99939.25
2022-10-18T05:58:29.151Z,99923.97
2022-10-18T06:00:58.768Z,99908.31
2022-10-18T06:03:25.280Z,99926.03
2022-10-18T06:05:51.780Z,99929.91
2022-10-18T06:08:18.306Z,99931.84
2022-10-18T06:10:44.982Z,99922.81
2022-10-18T06:13:12.850Z,99929.09
2022-10-18T06:15:39.358Z,99931.38
2022-10-18T06:18:05.861Z,99937.66
2022-10-18T06:20:32.363Z,99927.50
2022-10-18T06:22:58.857Z,99937.66
2022-10-18T06:25:25.472Z,99940.41
2022-10-18T06:27:52.024Z,99945.53
2022-10-18T06:30:19.865Z,99956.50
2022-10-18T06:32:46.485Z,99953.28
2022-10-18T06:35:13.144Z,99960.56
2022-10-18T06:37:39.778Z,99955.91
2022-10-18T06:40:07.622Z,99962.97
2022-10-18T06:42:34.554Z,99974.72
2022-10-18T06:45:01.246Z,99983.75
2022-10-18T06:47:29.135Z,99986.97
2022-10-18T06:49:55.685Z,99990.97
2022-10-18T06:52:22.227Z,99983.75
2022-10-18T06:54:48.720Z,99984.53
2022-10-18T06:57:15.336Z,99982.28
2022-10-18T06:59:41.829Z,99987.28
2022-10-18T07:02:09.441Z,99998.25
2022-10-18T07:04:37.443Z,100002.31
2022-10-18T07:07:03.960Z,99998.13
2022-10-18T07:09:30.796Z,99994.91
2022-10-18T07:11:57.287Z,99999.25
2022-10-18T07:14:28.763Z,100002.47
2022-10-18T07:16:58.018Z,100006.13
2022-10-18T07:19:24.616Z,100012.88
2022-10-18T07:21:52.478Z,100009.50
2022-10-18T07:24:18.975Z,100003.22
2022-10-18T07:26:45.521Z,100015.91
2022-10-18T07:29:12.430Z,100008.50
2022-10-18T07:31:39.276Z,100010.44
2022-10-18T07:34:06.821Z,100021.88
2022-10-18T07:36:33.887Z,100017.50
2022-10-18T07:39:02.137Z,100028.16
2022-10-18T07:41:28.654Z,100024.28
2022-10-18T07:43:55.192Z,100035.22
2022-10-18T07:46:22.496Z,100033.63
2022-10-18T07:48:49.430Z,100024.28
2022-10-18T07:51:16.943Z,100035.22
2022-10-18T07:53:43.534Z,100038.16
2022-10-18T07:56:13.722Z,100042.66
2022-10-18T07:58:40.215Z,100041.31
2022-10-18T08:01:08.467Z,100036.63
2022-10-18T08:03:35.717Z,100049.69
2022-10-18T08:06:03.551Z,100051.63
2022-10-18T08:08:30.618Z,100052.75
2022-10-18T08:11:02.500Z,100036.09
2022-10-18T08:13:30.762Z,100034.00
2022-10-18T08:16:00.001Z,100039.13
2022-10-18T08:18:26.616Z,100040.75
2022-10-18T08:20:53.132Z,100045.28
2022-10-18T08:23:19.672Z,100046.41
2022-10-18T08:25:46.154Z,100045.28
2022-10-18T08:28:12.660Z,100049.94
2022-10-18T08:30:40.539Z,100042.88
2022-10-18T08:33:07.082Z,100036.91
2022-10-18T08:35:33.631Z,100045.94
2022-10-18T08:38:00.175Z,100051.75
2022-10-18T08:40:27.764Z,100054.03
2022-10-18T08:43:02.975Z,100055.97
2022-10-18T08:45:42.094Z,100054.03
2022-10-18T08:48:19.848Z,100074.03
2022-10-18T08:50:46.871Z,100070.47
2022-10-18T08:53:17.470Z,100073.00
2022-10-18T08:55:48.800Z,100059.63
2022-10-18T08:58:19.429Z,100064.59
2022-10-18T09:00:54.506Z,100064.28
2022-10-18T09:03:36.256Z,100065.72
2022-10-18T09:06:17.561Z,100065.84
2022-10-18T09:09:01.386Z,100073.41
2022-10-18T09:11:44.303Z,100073.06
2022-10-18T09:14:33.607Z,100064.53
2022-10-18T09:17:10.378Z,100069.66
2022-10-18T09:19:54.981Z,100064.53
2022-10-18T09:22:29.068Z,100064.03
2022-10-18T09:25:04.422Z,100072.88
2022-10-18T09:27:41.109Z,100079.16
2022-10-18T09:30:18.765Z,100082.50
2022-10-18T09:32:51.289Z,100084.03
2022-10-18T09:35:24.165Z,100093.53
2022-10-18T09:37:54.133Z,100102.50
2022-10-18T09:40:26.852Z,100098.06
2022-10-18T09:42:58.262Z,100106.19
2022-10-18T09:45:29.115Z,100110.66
2022-10-18T09:48:05.529Z,100110.91
2022-10-18T09:50:37.971Z,100111.28
2022-10-18T09:53:12.867Z,100113.25
2022-10-18T09:55:47.260Z,100112.19
2022-10-18T09:58:14.771Z,100112.56
2022-10-18T10:00:46.048Z,100117.97
2022-10-18T10:03:13.085Z,100114.69
2022-10-18T10:05:41.331Z,100116.22
2022-10-18T10:08:07.929Z,100114.06
2022-10-18T10:10:38.216Z,100121.84
2022-10-18T10:13:07.212Z,100123.78
2022-10-18T10:15:39.301Z,100121.38
2022-10-18T10:18:20.304Z,100123.31
2022-10-18T10:20:51.330Z,100119.00
2022-10-18T10:23:21.351Z,100130.66
2022-10-18T10:25:52.016Z,100130.81
2022-10-18T10:28:21.731Z,100134.13
2022-10-18T10:30:48.305Z,100145.41
2022-10-18T10:33:33.769Z,100140.50
2022-10-18T10:36:03.191Z,100137.53
2022-10-18T10:38:31.191Z,100131.59
2022-10-18T10:40:58.214Z,100127.53
2022-10-18T10:43:42.801Z,100139.06
2022-10-18T10:46:12.026Z,100138.31
2022-10-18T10:48:47.916Z,100137.72
2022-10-18T10:51:18.042Z,100132.91
2022-10-18T10:53:50.335Z,100131.66
2022-10-18T10:56:28.309Z,100122.84
2022-10-18T10:58:58.268Z,100125.91
2022-10-18T11:01:28.978Z,100124.06
2022-10-18T11:03:58.138Z,100122.41
2022-10-18T11:06:48.697Z,100120.81
2022-10-18T11:09:33.798Z,100122.34
2022-10-18T11:12:12.116Z,100123.44
2022-10-18T11:14:44.835Z,100122.28
2022-10-18T11:17:18.701Z,100121.88
2022-10-18T11:19:59.087Z,100122.13
2022-10-18T11:22:32.378Z,100127.72
2022-10-18T11:24:59.147Z,100127.19
2022-10-18T11:27:30.521Z,100129.00
2022-10-18T11:30:14.275Z,100132.38
2022-10-18T11:32:48.381Z,100128.81
2022-10-18T11:35:32.267Z,100129.47
2022-10-18T11:38:12.234Z,100126.13
2022-10-18T11:40:54.367Z,100131.75
2022-10-18T11:43:30.162Z,100114.88
2022-10-18T11:46:09.912Z,100120.28
2022-10-18T11:48:57.286Z,100117.38
2022-10-18T11:51:38.596Z,100123.53
2022-10-18T11:57:25.307Z,100118.94
2022-10-18T12:00:03.098Z,100116.06
2022-10-18T12:03:14.546Z,100107.72
2022-10-18T12:05:44.776Z,100108.69
2022-10-18T12:08:14.685Z,100104.91
2022-10-18T12:11:04.023Z,100100.97
2022-10-18T12:13:38.910Z,100100.16
2022-10-18T12:16:08.222Z,100099.81
2022-10-18T12:18:36.752Z,100100.13
2022-10-18T12:21:06.248Z,100097.25
2022-10-18T12:23:42.202Z,100088.47
2022-10-18T12:26:11.438Z,100094.50
2022-10-18T12:28:53.809Z,100089.09
2022-10-18T12:31:24.640Z,100093.31
2022-10-18T12:33:56.673Z,100086.41
2022-10-18T12:36:41.736Z,100078.19
2022-10-18T12:39:15.656Z,100085.28
2022-10-18T12:41:47.318Z,100081.47
2022-10-18T12:44:20.157Z,100086.81
2022-10-18T12:46:49.780Z,100084.88
2022-10-18T12:49:21.770Z,100073.91
2022-10-18T12:51:54.066Z,100081.69
2022-10-18T12:54:25.585Z,100085.13
2022-10-18T12:56:53.511Z,100079.88
2022-10-18T12:59:49.960Z,100070.94
2022-10-18T13:02:37.700Z,100070.63
2022-10-18T13:05:48.882Z,100077.56
2022-10-18T13:08:37.637Z,100077.94
2022-10-18T13:11:28.223Z,100079.50
2022-10-18T13:14:20.986Z,100075.19
2022-10-18T13:16:53.222Z,100080.06
2022-10-18T13:19:25.896Z,100081.09
2022-10-18T13:22:04.358Z,100069.31
2022-10-18T13:24:35.487Z,100078.56
2022-10-18T13:27:36.588Z,100073.03
2022-10-18T13:30:27.328Z,100073.41
2022-10-18T13:33:02.247Z,100069.91
2022-10-18T13:35:52.529Z,100076.81
2022-10-18T13:38:59.727Z,100078.69
2022-10-18T13:41:31.318Z,100072.50
2022-10-18T13:44:23.933Z,100079.69
2022-10-18T13:47:32.066Z,100071.09
2022-10-18T13:53:41.927Z,100076.50
2022-10-18T13:56:33.161Z,100075.00
2022-10-18T13:59:42.476Z,100068.69
2022-10-18T14:02:50.324Z,100073.88
2022-10-18T14:05:32.127Z,100073.72
2022-10-18T14:08:05.774Z,100076.38
2022-10-18T14:11:00.925Z,100077.97
2022-10-18T14:13:36.433Z,100086.03
2022-10-18T14:16:09.118Z,100084.97
2022-10-18T14:18:42.411Z,100090.38
2022-10-18T14:21:21.970Z,100085.91
2022-10-18T14:23:50.599Z,100085.16
2022-10-18T14:26:18.956Z,100079.81
2022-10-18T14:29:01.509Z,100074.53
2022-10-18T14:31:28.541Z,100095.47
2022-10-18T14:33:58.909Z,100088.31
2022-10-18T14:36:29.251Z,100081.88
2022-10-18T14:38:57.407Z,100087.41
2022-10-18T14:41:25.685Z,100081.22
2022-10-18T14:43:53.922Z,100095.44
2022-10-18T14:46:22.885Z,100106.53
2022-10-18T14:48:54.803Z,100099.38
2022-10-18T14:51:22.965Z,100100.69
2022-10-18T14:53:50.288Z,100094.31
2022-10-18T14:56:23.993Z,100108.25
2022-10-18T14:58:51.199Z,100107.66
2022-10-18T15:01:20.091Z,100090.94
2022-10-18T15:03:47.863Z,100107.00
2022-10-18T15:06:17.948Z,100113.03
2022-10-18T15:08:47.517Z,100105.22
2022-10-18T15:11:15.767Z,100114.47
2022-10-18T15:13:48.175Z,100115.66
2022-10-18T15:16:16.929Z,100106.31
2022-10-18T15:18:44.009Z,100113.59
2022-10-18T15:21:21.676Z,100111.03
2022-10-18T15:23:50.346Z,100106.56
2022-10-18T15:26:23.044Z,100116.59
2022-10-18T15:28:51.635Z,100114.38
2022-10-18T15:31:24.839Z,100118.19
2022-10-18T15:33:52.310Z,100115.13
2022-10-18T15:36:26.780Z,100120.16
2022-10-18T15:39:04.021Z,100115.97
2022-10-18T15:41:37.162Z,100118.56
2022-10-18T15:44:11.667Z,100119.09
2022-10-18T15:46:42.600Z,100121.63
2022-10-18T15:49:48.095Z,100113.38
2022-10-18T15:52:37.730Z,100120.16
2022-10-18T15:55:37.835Z,100119.28
2022-10-18T15:58:11.134Z,100129.03
2022-10-18T16:00:37.707Z,100128.72
2022-10-18T16:03:04.335Z,100129.47
2022-10-18T16:05:30.861Z,100132.00
2022-10-18T16:07:57.484Z,100134.75
2022-10-18T16:10:23.976Z,100146.69
2022-10-18T16:12:50.577Z,100135.53
2022-10-18T16:15:18.953Z,100134.06
2022-10-18T16:17:45.698Z,100137.72
2022-10-18T16:20:18.702Z,100145.50
2022-10-18T16:22:45.348Z,100155.13
2022-10-18T16:25:11.850Z,100146.09
2022-10-18T16:27:38.597Z,100153.44
2022-10-18T16:30:12.217Z,100152.75
2022-10-18T16:32:40.211Z,100155.59
2022-10-18T16:35:07.257Z,100167.03
2022-10-18T16:37:33.915Z,100174.34
2022-10-18T16:40:00.421Z,100174.22
2022-10-18T16:42:27.038Z,100180.16
2022-10-18T16:44:53.782Z,100184.56
2022-10-18T16:47:20.452Z,100175.28
2022-10-18T16:49:48.334Z,100182.94
2022-10-18T16:52:14.863Z,100183.16
2022-10-18T16:54:41.359Z,100184.72
2022-10-18T16:57:09.147Z,100179.13
2022-10-18T16:59:35.642Z,100184.88
2022-10-18T17:02:02.248Z,100175.78
2022-10-18T17:04:28.760Z,100191.50
2022-10-18T17:06:57.675Z,100183.94
2022-10-18T17:09:24.219Z,100191.03
2022-10-18T17:11:50.760Z,100189.03
2022-10-18T17:14:17.260Z,100193.59
2022-10-18T17:16:46.626Z,100200.38
2022-10-18T17:19:16.755Z,100188.13
2022-10-18T17:21:43.380Z,100201.22
2022-10-18T17:24:11.284Z,100203.56
2022-10-18T17:26:38.041Z,100195.53
2022-10-18T17:29:06.500Z,100204.78
2022-10-18T17:31:33.574Z,100203.66
2022-10-18T17:34:00.366Z,100199.63
2022-10-18T17:36:26.894Z,100200.72
2022-10-18T17:38:53.826Z,100204.09
2022-10-18T17:41:22.115Z,100213.41
2022-10-18T17:43:48.927Z,100213.28
2022-10-18T17:46:15.998Z,100210.09
2022-10-18T17:48:42.639Z,100223.97
2022-10-18T17:51:10.550Z,100225.13
2022-10-18T17:53:37.114Z,100229.16
2022-10-18T17:56:04.768Z,100219.00
2022-10-18T17:58:32.677Z,100219.63
2022-10-18T18:01:08.908Z,100218.06
2022-10-18T18:03:35.628Z,100217.41
2022-10-18T18:06:12.171Z,100218.88
2022-10-18T18:08:38.713Z,100216.81
2022-10-18T18:11:05.501Z,100215.34
2022-10-18T18:13:33.453Z,100219.88
2022-10-18T18:16:10.524Z,100227.28
2022-10-18T18:18:37.313Z,100223.56
2022-10-18T18:21:03.872Z,100223.56
2022-10-18T18:23:30.455Z,100228.53
2022-10-18T18:25:57.678Z,100228.66
2022-10-18T18:28:24.264Z,100234.25
2022-10-18T18:30:52.155Z,100227.78
2022-10-18T18:33:18.741Z,100225.47
2022-10-18T18:35:54.410Z,100234.91
2022-10-18T18:38:20.947Z,100225.19
2022-10-18T18:40:47.557Z,100226.28
2022-10-18T18:43:28.671Z,100224.94
2022-10-18T18:45:56.551Z,100216.50
2022-10-18T18:48:23.104Z,100230.59
2022-10-18T18:50:49.663Z,100238.91
2022-10-18T18:53:16.338Z,100235.28
2022-10-18T18:55:42.909Z,100238.94
2022-10-18T18:58:09.709Z,100241.81
2022-10-18T19:00:41.702Z,100244.94
2022-10-18T19:03:12.515Z,100241.84
2022-10-18T19:05:39.171Z,100246.31
2022-10-18T19:08:06.272Z,100256.53
2022-10-18T19:10:32.916Z,100264.31
2022-10-18T19:12:59.540Z,100264.94
2022-10-18T19:15:26.238Z,100252.63
2022-10-18T19:17:52.807Z,100250.53
2022-10-18T19:20:20.915Z,100247.72
2022-10-18T19:22:47.443Z,100248.75
2022-10-18T19:25:14.272Z,100242.28
2022-10-18T19:27:40.783Z,100237.25
2022-10-18T19:30:10.682Z,100245.53
2022-10-18T19:32:37.341Z,100245.31
2022-10-18T19:35:04.310Z,100249.75
2022-10-18T19:37:32.521Z,100240.09
2022-10-18T19:39:59.324Z,100233.13
2022-10-18T19:42:27.540Z,100242.19
2022-10-18T19:44:56.977Z,100248.56
2022-10-18T19:47:23.520Z,100244.81
2022-10-18T19:49:50.044Z,100243.00
2022-10-18T19:52:16.579Z,100254.78
2022-10-18T19:54:44.596Z,100250.28
2022-10-18T19:57:11.109Z,100254.16
2022-10-18T19:59:37.849Z,100241.25
2022-10-18T20:02:04.402Z,100234.53
2022-10-18T20:04:31.267Z,100243.84
2022-10-18T20:06:57.911Z,100253.72
2022-10-18T20:09:24.419Z,100257.63
2022-10-18T20:11:52.315Z,100252.78
2022-10-18T20:14:18.805Z,100255.81
2022-10-18T20:16:45.501Z,100263.75
2022-10-18T20:19:12.017Z,100261.13
2022-10-18T20:21:38.683Z,100258.28
2022-10-18T20:24:06.205Z,100267.00
2022-10-18T20:26:33.305Z,100267.41
2022-10-18T20:29:01.308Z,100275.34
2022-10-18T20:31:29.378Z,100270.00
2022-10-18T20:33:57.399Z,100262.41
2022-10-18T20:36:24.986Z,100263.88
2022-10-18T20:38:51.758Z,100265.84
2022-10-18T20:41:21.495Z,100264.03
2022-10-18T20:43:51.165Z,100268.13
2022-10-18T20:46:19.113Z,100268.22
2022-10-18T20:48:45.725Z,100266.91
2022-10-18T20:51:12.741Z,100277.53
2022-10-18T20:53:40.662Z,100269.38
2022-10-18T20:56:09.243Z,100278.94
2022-10-18T20:58:36.529Z,100281.97
2022-10-18T21:01:07.745Z,100286.06
2022-10-18T21:03:37.728Z,100290.41
2022-10-18T21:06:11.973Z,100287.69
2022-10-18T21:08:39.303Z,100287.97
2022-10-18T21:11:06.113Z,100278.84
2022-10-18T21:13:32.800Z,100286.47
2022-10-18T21:16:00.422Z,100274.06
2022-10-18T21:18:28.124Z,100271.91
2022-10-18T21:21:05.976Z,100277.97
2022-10-18T21:23:33.430Z,100283.69
2022-10-18T21:25:59.956Z,100272.56
2022-10-18T21:28:26.540Z,100273.75
2022-10-18T21:30:53.100Z,100277.63
2022-10-18T21:33:19.673Z,100269.53
2022-10-18T21:35:46.196Z,100273.69
2022-10-18T21:38:14.051Z,100272.97
2022-10-18T21:40:40.596Z,100280.84
2022-10-18T21:43:07.138Z,100273.88
2022-10-18T21:45:33.744Z,100276.63
2022-10-18T21:48:00.315Z,100271.25
2022-10-18T21:50:26.879Z,100255.53
2022-10-18T21:52:53.379Z,100269.13
2022-10-18T21:55:21.294Z,100265.66
2022-10-18T21:57:47.823Z,100256.44
2022-10-18T22:00:16.066Z,100262.44
2022-10-18T22:02:42.576Z,100262.47
2022-10-18T22:05:11.338Z,100263.28
2022-10-18T22:07:38.779Z,100263.56
2022-10-18T22:10:06.124Z,100266.88
2022-10-18T22:12:33.996Z,100271.78
2022-10-18T22:15:00.559Z,100276.94
2022-10-18T22:17:27.099Z,100271.31
2022-10-18T22:19:53.600Z,100279.19
2022-10-18T22:22:20.162Z,100278.13
2022-10-18T22:24:48.067Z,100274.13
2022-10-18T22:27:14.708Z,100271.22
2022-10-18T22:29:42.618Z,100279.63
2022-10-18T22:32:09.248Z,100262.88
2022-10-18T22:34:35.772Z,100268.56
2022-10-18T22:37:02.323Z,100255.28
2022-10-18T22:39:28.932Z,100247.97
2022-10-18T22:41:55.480Z,100254.75
2022-10-18T22:44:22.055Z,100250.69
2022-10-18T22:46:49.956Z,100246.41
2022-10-18T22:49:16.492Z,100246.69
2022-10-18T22:51:43.055Z,100244.78
2022-10-18T22:54:10.103Z,100252.31
2022-10-18T22:56:36.646Z,100251.75
2022-10-18T22:59:03.451Z,100246.28
2022-10-18T23:01:30.081Z,100248.16
2022-10-18T23:04:00.576Z,100253.03
2022-10-18T23:06:29.230Z,100255.44
2022-10-18T23:08:59.475Z,100251.34
2022-10-18T23:11:27.130Z,100252.91
2022-10-18T23:13:54.466Z,100248.53
2022-10-18T23:16:21.418Z,100252.81
2022-10-18T23:18:49.722Z,100252.25
2022-10-18T23:21:18.444Z,100248.97
2022-10-18T23:23:45.047Z,100247.34
2022-10-18T23:26:14.008Z,100243.28
2022-10-18T23:28:42.710Z,100247.53
2022-10-18T23:31:11.860Z,100250.78
2022-10-18T23:33:39.337Z,100254.81
2022-10-18T23:36:07.726Z,100253.72
2022-10-18T23:38:37.379Z,100248.03
2022-10-18T23:41:04.142Z,100249.13
2022-10-18T23:43:30.687Z,100250.47
2022-10-18T23:45:57.271Z,100256.69
2022-10-18T23:48:24.227Z,100257.50
2022-10-18T23:50:50.961Z,100260.78
2022-10-18T23:53:17.891Z,100264.03
2022-10-18T23:55:52.957Z,100258.13
2022-10-18T23:58:19.508Z,100258.69
